createdAt,value
2019-02-20T00:01:10.538Z,9.07
2019-02-20T00:03:42.488Z,9.13
2019-02-20T00:06:17.551Z,8.97
2019-02-20T00:08:53.497Z,8.80
2019-02-20T00:11:28.040Z,9.00
2019-02-20T00:13:59.384Z,9.33
2019-02-20T00:16:32.893Z,9.57
2019-02-20T00:19:08.018Z,8.63
2019-02-20T00:21:44.771Z,8.30
2019-02-20T00:24:22.182Z,8.33
2019-02-20T00:26:57.841Z,8.27
2019-02-20T00:29:35.833Z,8.37
2019-02-20T00:32:09.298Z,8.07
2019-02-20T00:34:56.550Z,7.90
2019-02-20T00:38:07.226Z,7.40
2019-02-20T00:40:44.616Z,7.40
2019-02-20T00:43:24.222Z,7.57
2019-02-20T00:46:15.505Z,7.00
2019-02-20T00:49:16.599Z,7.30
2019-02-20T00:52:24.512Z,7.40
2019-02-20T00:55:02.705Z,7.57
2019-02-20T00:57:54.117Z,8.17
2019-02-20T01:00:34.596Z,7.67
2019-02-20T01:03:09.067Z,8.33
2019-02-20T01:05:48.281Z,7.20
2019-02-20T01:08:40.542Z,7.77
2019-02-20T01:11:19.271Z,8.27
2019-02-20T01:14:00.718Z,7.37
2019-02-20T01:16:37.159Z,8.03
2019-02-20T01:19:11.406Z,7.70
2019-02-20T01:21:54.481Z,7.40
2019-02-20T01:24:30.674Z,7.27
2019-02-20T01:27:09.326Z,7.73
2019-02-20T01:29:46.565Z,8.07
2019-02-20T01:32:21.824Z,7.57
2019-02-20T01:35:02.756Z,7.90
2019-02-20T01:37:37.812Z,7.57
2019-02-20T01:40:18.504Z,7.80
2019-02-20T01:43:06.303Z,8.33
2019-02-20T01:45:39.515Z,8.20
2019-02-20T01:48:21.732Z,7.90
2019-02-20T01:51:08.429Z,8.17
2019-02-20T01:53:49.165Z,8.30
2019-02-20T01:56:29.467Z,8.60
2019-02-20T01:59:10.833Z,8.83
2019-02-20T02:01:47.327Z,9.07
2019-02-20T02:04:27.650Z,9.77
2019-02-20T02:07:05.651Z,8.83
2019-02-20T02:09:43.791Z,8.47
2019-02-20T02:12:37.387Z,8.40
2019-02-20T02:15:20.419Z,9.93
2019-02-20T02:18:09.857Z,8.67
2019-02-20T02:20:56.018Z,9.67
2019-02-20T02:23:34.855Z,10.10
2019-02-20T02:26:40.792Z,9.23
2019-02-20T02:29:41.993Z,9.37
2019-02-20T02:33:01.022Z,9.93
2019-02-20T02:35:55.181Z,10.43
2019-02-20T02:38:29.759Z,8.63
2019-02-20T02:41:24.838Z,10.13
2019-02-20T02:44:03.777Z,10.43
2019-02-20T02:46:53.723Z,10.60
2019-02-20T02:49:30.138Z,10.33
2019-02-20T02:52:08.781Z,11.17
2019-02-20T02:54:50.209Z,10.10
2019-02-20T02:57:34.974Z,10.43
2019-02-20T03:00:10.537Z,10.20
2019-02-20T03:02:53.377Z,10.97
2019-02-20T03:05:28.970Z,10.67
2019-02-20T03:08:06.181Z,9.77
2019-02-20T03:10:58.464Z,11.50
2019-02-20T03:13:35.508Z,11.00
2019-02-20T03:16:14.553Z,10.40
2019-02-20T03:19:13.205Z,10.90
2019-02-20T03:21:50.855Z,10.70
2019-02-20T03:24:34.845Z,11.50
2019-02-20T03:27:15.355Z,12.23
2019-02-20T03:29:45.265Z,10.83
2019-02-20T03:32:31.222Z,11.97
2019-02-20T03:35:06.747Z,11.37
2019-02-20T03:37:39.246Z,12.33
2019-02-20T03:40:20.230Z,10.80
2019-02-20T03:42:54.000Z,10.40
2019-02-20T03:45:35.034Z,11.10
2019-02-20T03:48:05.758Z,10.10
2019-02-20T03:50:40.355Z,11.00
2019-02-20T03:53:17.215Z,10.57
2019-02-20T03:55:52.370Z,10.90
2019-02-20T03:58:28.293Z,10.43
2019-02-20T04:01:02.772Z,10.97
2019-02-20T04:03:34.544Z,11.43
2019-02-20T04:06:07.943Z,11.23
2019-02-20T04:08:45.745Z,10.87
2019-02-20T04:11:29.003Z,10.17
2019-02-20T04:14:06.359Z,10.63
2019-02-20T04:16:40.542Z,11.20
2019-02-20T04:19:14.550Z,11.57
2019-02-20T04:21:52.019Z,11.30
2019-02-20T04:24:33.519Z,11.30
2019-02-20T04:27:13.341Z,12.40
2019-02-20T04:29:57.096Z,12.37
2019-02-20T04:32:33.289Z,13.40
2019-02-20T04:35:28.826Z,13.13
2019-02-20T04:38:15.127Z,12.67
2019-02-20T04:40:58.928Z,13.33
2019-02-20T04:43:54.889Z,14.23
2019-02-20T04:46:28.837Z,14.37
2019-02-20T04:49:04.049Z,14.03
2019-02-20T04:51:39.228Z,14.37
2019-02-20T04:54:20.250Z,14.87
2019-02-20T04:57:02.119Z,14.70
2019-02-20T04:59:36.383Z,14.50
2019-02-20T05:02:11.263Z,14.00
2019-02-20T05:04:45.704Z,14.27
2019-02-20T05:07:19.665Z,14.30
2019-02-20T05:09:56.303Z,14.20
2019-02-20T05:12:39.794Z,15.10
2019-02-20T05:15:15.447Z,15.10
2019-02-20T05:18:00.654Z,15.13
2019-02-20T05:20:46.795Z,14.67
2019-02-20T05:23:27.193Z,14.53
2019-02-20T05:26:12.626Z,15.60
2019-02-20T05:28:53.495Z,15.33
2019-02-20T05:31:51.407Z,16.13
2019-02-20T05:34:34.769Z,15.33
2019-02-20T05:37:20.542Z,15.80
2019-02-20T05:40:15.990Z,15.50
2019-02-20T05:42:53.715Z,15.27
2019-02-20T05:45:31.272Z,15.50
2019-02-20T05:48:06.532Z,15.03
2019-02-20T05:50:45.221Z,14.43
2019-02-20T05:53:21.087Z,14.97
2019-02-20T05:55:56.257Z,16.40
2019-02-20T05:58:45.047Z,15.00
2019-02-20T06:01:18.160Z,15.87
2019-02-20T06:03:56.470Z,16.80
2019-02-20T06:06:37.712Z,16.30
2019-02-20T06:09:17.747Z,17.60
2019-02-20T06:11:53.728Z,16.23
2019-02-20T06:14:31.568Z,16.60
2019-02-20T06:17:05.506Z,17.20
2019-02-20T06:19:42.131Z,16.67
2019-02-20T06:22:20.624Z,17.40
2019-02-20T06:25:02.304Z,17.60
2019-02-20T06:27:36.651Z,17.27
2019-02-20T06:30:08.309Z,17.17
2019-02-20T06:32:50.078Z,16.80
2019-02-20T06:35:27.570Z,16.87
2019-02-20T06:38:11.029Z,17.23
2019-02-20T06:40:45.605Z,17.13
2019-02-20T06:43:27.850Z,17.40
2019-02-20T06:46:00.925Z,16.83
2019-02-20T06:48:37.072Z,17.43
2019-02-20T06:51:14.955Z,17.03
2019-02-20T06:53:54.102Z,17.37
2019-02-20T06:56:51.203Z,18.20
2019-02-20T06:59:32.884Z,17.87
2019-02-20T07:02:17.055Z,18.50
2019-02-20T07:05:46.451Z,17.67
2019-02-20T07:08:43.558Z,16.40
2019-02-20T07:11:34.011Z,18.33
2019-02-20T07:14:58.003Z,18.30
2019-02-20T07:17:56.828Z,19.10
2019-02-20T07:21:13.874Z,18.53
2019-02-20T07:24:09.527Z,18.67
2019-02-20T07:27:02.239Z,18.30
2019-02-20T07:29:59.897Z,18.80
2019-02-20T07:32:27.571Z,19.20
2019-02-20T07:34:55.161Z,18.97
2019-02-20T07:37:26.484Z,19.07
2019-02-20T07:39:54.115Z,20.23
2019-02-20T07:42:25.917Z,19.03
2019-02-20T07:44:59.387Z,20.07
2019-02-20T07:47:39.678Z,19.27
2019-02-20T07:50:13.677Z,20.73
2019-02-20T07:52:51.231Z,20.13
2019-02-20T07:55:28.557Z,20.17
2019-02-20T07:58:04.479Z,21.20
2019-02-20T08:00:38.115Z,20.30
2019-02-20T08:03:12.499Z,19.67
2019-02-20T08:05:51.653Z,20.03
2019-02-20T08:08:33.308Z,21.27
2019-02-20T08:11:10.603Z,20.33
2019-02-20T08:13:47.633Z,20.73
2019-02-20T08:16:21.705Z,21.50
2019-02-20T08:19:02.167Z,19.87
2019-02-20T08:21:35.754Z,23.10
2019-02-20T08:24:11.799Z,22.23
2019-02-20T08:26:49.484Z,21.63
2019-02-20T08:29:27.489Z,22.00
2019-02-20T08:31:58.548Z,20.60
2019-02-20T08:34:35.264Z,20.47
2019-02-20T08:37:19.936Z,21.07
2019-02-20T08:39:59.372Z,20.53
2019-02-20T08:42:40.582Z,20.17
2019-02-20T08:45:12.092Z,20.60
2019-02-20T08:47:47.610Z,20.90
2019-02-20T08:50:22.436Z,19.83
2019-02-20T08:52:57.213Z,20.40
2019-02-20T08:55:32.332Z,20.53
2019-02-20T08:58:07.888Z,18.80
2019-02-20T09:00:47.271Z,20.40
2019-02-20T09:03:24.402Z,19.77
2019-02-20T09:06:19.498Z,19.03
2019-02-20T09:08:59.026Z,18.30
2019-02-20T09:11:56.087Z,19.03
2019-02-20T09:14:38.106Z,18.40
2019-02-20T09:17:37.531Z,18.37
2019-02-20T09:20:29.219Z,19.13
2019-02-20T09:23:05.179Z,19.27
2019-02-20T09:25:45.590Z,18.70
2019-02-20T09:28:19.437Z,19.00
2019-02-20T09:30:53.169Z,19.40
2019-02-20T09:33:54.025Z,19.20
2019-02-20T09:36:30.141Z,18.97
2019-02-20T09:39:54.218Z,18.10
2019-02-20T09:42:31.533Z,18.03
2019-02-20T09:45:03.059Z,18.17
2019-02-20T09:47:44.523Z,19.47
2019-02-20T09:50:18.162Z,17.97
2019-02-20T09:53:00.855Z,17.23
2019-02-20T09:55:33.943Z,17.03
2019-02-20T09:58:25.165Z,16.00
2019-02-20T10:04:33.416Z,16.47
2019-02-20T10:07:23.232Z,16.17
2019-02-20T10:09:54.691Z,15.57
2019-02-20T10:12:45.743Z,15.87
2019-02-20T10:15:39.781Z,14.97
2019-02-20T10:18:19.187Z,14.40
2019-02-20T10:21:01.251Z,15.43
2019-02-20T10:23:45.528Z,14.33
2019-02-20T10:26:27.923Z,14.80
2019-02-20T10:29:15.760Z,13.57
2019-02-20T10:31:54.046Z,14.30
2019-02-20T10:34:30.387Z,13.40
2019-02-20T10:37:28.462Z,13.03
2019-02-20T10:40:10.656Z,12.90
2019-02-20T10:43:13.612Z,13.27
2019-02-20T10:46:07.603Z,12.80
2019-02-20T10:48:49.245Z,11.70
2019-02-20T10:51:24.535Z,10.87
2019-02-20T10:54:03.237Z,11.90
2019-02-20T10:56:47.275Z,12.43
2019-02-20T10:59:33.106Z,11.23
2019-02-20T11:02:33.147Z,11.47
2019-02-20T11:05:08.360Z,11.87
2019-02-20T11:07:53.542Z,10.57
2019-02-20T11:10:34.721Z,9.70
2019-02-20T11:13:14.264Z,9.50
2019-02-20T11:16:00.721Z,9.37
2019-02-20T11:18:33.946Z,9.53
2019-02-20T11:21:31.382Z,10.20
2019-02-20T11:24:36.298Z,9.50
2019-02-20T11:27:28.372Z,10.80
2019-02-20T11:30:28.402Z,10.93
2019-02-20T11:33:05.027Z,11.37
2019-02-20T11:35:47.400Z,11.57
2019-02-20T11:38:26.321Z,11.77
2019-02-20T11:41:13.571Z,11.23
2019-02-20T11:43:58.410Z,10.73
2019-02-20T11:46:29.736Z,11.50
2019-02-20T11:49:08.584Z,11.13
2019-02-20T11:51:58.330Z,11.47
2019-02-20T11:54:42.760Z,12.13
2019-02-20T11:58:03.477Z,11.23
2019-02-20T12:00:46.202Z,11.20
2019-02-20T12:06:50.505Z,13.50
2019-02-20T12:09:36.209Z,12.70
2019-02-20T12:12:19.245Z,12.47
2019-02-20T12:15:25.426Z,11.33
2019-02-20T12:18:17.537Z,11.47
2019-02-20T12:20:59.298Z,12.47
2019-02-20T12:27:51.235Z,12.47
2019-02-20T12:30:51.016Z,12.90
2019-02-20T12:33:54.505Z,11.67
2019-02-20T12:36:38.298Z,12.73
2019-02-20T12:39:51.468Z,12.87
2019-02-20T12:42:57.027Z,11.63
2019-02-20T12:45:49.598Z,11.20
2019-02-20T12:49:25.638Z,12.33
2019-02-20T12:52:16.473Z,12.57
2019-02-20T12:54:59.298Z,12.00
2019-02-20T12:57:37.723Z,13.17
2019-02-20T13:00:38.698Z,12.13
2019-02-20T13:03:34.312Z,12.20
2019-02-20T13:06:29.768Z,12.33
2019-02-20T13:09:14.596Z,10.90
2019-02-20T13:12:01.327Z,10.93
2019-02-20T13:14:33.906Z,11.30
2019-02-20T13:17:17.620Z,11.07
2019-02-20T13:20:00.960Z,9.93
2019-02-20T13:22:49.926Z,10.00
2019-02-20T13:29:31.226Z,10.33
2019-02-20T13:32:40.787Z,10.33
2019-02-20T13:35:32.582Z,10.43
2019-02-20T13:38:20.463Z,10.03
2019-02-20T13:40:58.120Z,9.60
2019-02-20T13:43:32.314Z,10.10
2019-02-20T13:46:02.664Z,9.03
2019-02-20T13:48:45.268Z,8.10
2019-02-20T13:51:47.459Z,7.57
2019-02-20T13:54:44.014Z,7.57
2019-02-20T14:01:47.229Z,7.40
2019-02-20T14:04:44.499Z,7.17
2019-02-20T14:08:39.003Z,6.87
2019-02-20T14:10:45.901Z,7.97
2019-02-20T14:17:26.182Z,7.53
2019-02-20T14:20:33.869Z,7.73
2019-02-20T14:23:16.628Z,5.50
2019-02-20T14:26:59.557Z,4.27
2019-02-20T14:29:17.919Z,4.57
2019-02-20T14:45:05.884Z,5.97
2019-02-20T14:47:56.076Z,5.70
2019-02-20T14:50:40.181Z,5.27
2019-02-20T14:53:43.901Z,5.47
2019-02-20T14:56:22.703Z,5.67
2019-02-20T14:59:17.492Z,5.50
2019-02-20T15:02:24.126Z,5.70
2019-02-20T15:06:14.180Z,5.50
2019-02-20T15:08:53.996Z,5.60
2019-02-20T15:11:45.103Z,4.83
2019-02-20T15:14:49.015Z,5.00
2019-02-20T15:18:07.212Z,4.43
2019-02-20T15:21:13.379Z,4.00
2019-02-20T15:23:47.599Z,3.90
2019-02-20T15:30:13.041Z,4.47
2019-02-20T15:33:00.627Z,4.90
2019-02-20T15:35:39.301Z,4.67
2019-02-20T15:38:29.271Z,4.50
2019-02-20T15:41:22.828Z,4.63
2019-02-20T15:43:57.649Z,4.70
2019-02-20T15:46:35.373Z,4.93
2019-02-20T15:49:58.592Z,4.40
2019-02-20T15:52:34.844Z,4.43
2019-02-20T15:55:36.576Z,4.57
2019-02-20T15:58:40.726Z,4.40
2019-02-20T16:01:26.345Z,4.60
2019-02-20T16:05:08.835Z,4.97
2019-02-20T16:08:20.973Z,4.33
2019-02-20T16:11:15.496Z,4.63
2019-02-20T16:13:56.833Z,4.60
2019-02-20T16:16:31.781Z,4.80
2019-02-20T16:22:40.310Z,5.03
2019-02-20T16:25:41.074Z,5.10
2019-02-20T16:28:21.999Z,5.00
2019-02-20T16:31:27.093Z,5.43
2019-02-20T16:34:54.312Z,5.47
2019-02-20T16:37:27.772Z,8.20
2019-02-20T16:40:05.747Z,9.43
2019-02-20T16:42:39.356Z,7.23
2019-02-20T16:45:30.389Z,5.77
2019-02-20T16:47:58.157Z,6.07
2019-02-20T16:50:30.276Z,6.80
2019-02-20T16:53:01.122Z,6.83
2019-02-20T16:55:28.759Z,5.37
2019-02-20T16:58:03.998Z,6.07
2019-02-20T17:00:32.068Z,5.23
2019-02-20T17:03:00.222Z,6.00
2019-02-20T17:05:30.242Z,5.53
2019-02-20T17:07:59.346Z,5.33
2019-02-20T17:10:29.920Z,5.13
2019-02-20T17:12:57.530Z,4.83
2019-02-20T17:15:31.497Z,5.03
2019-02-20T17:18:01.747Z,4.70
2019-02-20T17:20:29.582Z,5.00
2019-02-20T17:23:00.142Z,4.70
2019-02-20T17:25:41.455Z,4.90
2019-02-20T17:28:15.212Z,5.73
2019-02-20T17:30:53.102Z,5.50
2019-02-20T17:33:28.929Z,5.40
2019-02-20T17:36:17.706Z,5.00
2019-02-20T17:38:54.630Z,6.03
2019-02-20T17:41:30.841Z,5.73
2019-02-20T17:44:05.495Z,5.80
2019-02-20T17:46:37.799Z,5.30
2019-02-20T17:49:11.210Z,5.37
2019-02-20T17:51:47.807Z,5.00
2019-02-20T17:54:18.508Z,5.67
2019-02-20T17:56:47.460Z,6.13
2019-02-20T17:59:18.829Z,5.60
2019-02-20T18:01:51.742Z,5.83
2019-02-20T18:04:22.301Z,5.77
2019-02-20T18:06:55.538Z,5.90
2019-02-20T18:09:26.470Z,6.83
2019-02-20T18:11:56.016Z,6.73
2019-02-20T18:14:28.561Z,6.37
2019-02-20T18:16:58.626Z,6.07
2019-02-20T18:19:33.408Z,7.63
2019-02-20T18:22:01.309Z,8.03
2019-02-20T18:24:36.317Z,7.27
2019-02-20T18:27:09.163Z,7.47
2019-02-20T18:29:51.902Z,7.00
2019-02-20T18:32:22.160Z,7.17
2019-02-20T18:34:53.430Z,7.30
2019-02-20T18:37:28.352Z,6.77
2019-02-20T18:39:56.734Z,8.10
2019-02-20T18:42:29.518Z,7.70
2019-02-20T18:44:59.609Z,7.77
2019-02-20T18:47:30.417Z,7.53
2019-02-20T18:49:58.376Z,7.23
2019-02-20T18:52:36.010Z,6.70
2019-02-20T18:55:16.142Z,7.33
2019-02-20T18:57:43.943Z,11.13
2019-02-20T19:00:16.443Z,14.07
2019-02-20T19:02:46.581Z,15.43
2019-02-20T19:05:19.323Z,15.53
2019-02-20T19:07:47.613Z,15.13
2019-02-20T19:10:19.433Z,13.20
2019-02-20T19:13:34.889Z,12.33
2019-02-20T19:16:27.557Z,11.50
2019-02-20T19:19:44.816Z,9.33
2019-02-20T19:22:44.089Z,10.63
2019-02-20T19:25:32.093Z,12.23
2019-02-20T19:28:29.273Z,11.30
2019-02-20T19:31:46.521Z,11.23
2019-02-20T19:35:04.755Z,10.70
2019-02-20T19:38:06.204Z,11.23
2019-02-20T19:41:03.980Z,11.40
2019-02-20T19:44:02.269Z,12.17
2019-02-20T19:46:57.183Z,12.87
2019-02-20T19:50:14.043Z,12.23
2019-02-20T19:53:09.950Z,12.30
2019-02-20T19:56:07.646Z,11.77
2019-02-20T19:58:58.524Z,12.90
2019-02-20T20:02:04.088Z,12.20
2019-02-20T20:04:49.689Z,11.80
2019-02-20T20:08:05.115Z,12.43
2019-02-20T20:11:07.345Z,13.00
2019-02-20T20:14:21.718Z,13.27
2019-02-20T20:17:26.023Z,13.20
2019-02-20T20:20:18.787Z,14.40
2019-02-20T20:23:19.808Z,13.53
2019-02-20T20:26:29.072Z,13.20
2019-02-20T20:29:16.572Z,13.63
2019-02-20T20:32:33.409Z,13.00
2019-02-20T20:35:22.499Z,12.87
2019-02-20T20:38:23.372Z,13.17
2019-02-20T20:41:23.641Z,12.87
2019-02-20T20:44:28.111Z,13.43
2019-02-20T20:47:30.982Z,13.13
2019-02-20T20:50:28.418Z,14.33
2019-02-20T20:53:46.934Z,14.90
2019-02-20T20:57:11.260Z,16.50
2019-02-20T21:00:03.218Z,14.40
2019-02-20T21:02:42.498Z,13.70
2019-02-20T21:05:53.731Z,12.90
2019-02-20T21:08:45.752Z,14.03
2019-02-20T21:11:46.822Z,12.23
2019-02-20T21:14:51.844Z,12.40
2019-02-20T21:17:57.358Z,11.80
2019-02-20T21:21:10.835Z,13.87
2019-02-20T21:24:37.930Z,12.43
2019-02-20T21:27:39.968Z,13.43
2019-02-20T21:30:24.529Z,13.77
2019-02-20T21:33:32.160Z,13.53
2019-02-20T21:36:46.155Z,12.87
2019-02-20T21:39:46.578Z,13.27
2019-02-20T21:43:14.455Z,13.13
2019-02-20T21:46:17.831Z,13.13
2019-02-20T21:49:24.957Z,13.13
2019-02-20T21:52:21.068Z,13.63
2019-02-20T21:55:41.765Z,12.13
2019-02-20T21:58:41.600Z,13.03
2019-02-20T22:01:42.591Z,11.93
2019-02-20T22:04:40.656Z,12.70
2019-02-20T22:07:34.669Z,12.70
2019-02-20T22:10:22.750Z,13.53
2019-02-20T22:13:22.299Z,13.00
2019-02-20T22:16:30.364Z,12.57
2019-02-20T22:20:04.347Z,13.73
2019-02-20T22:23:08.087Z,12.13
2019-02-20T22:26:19.581Z,13.20
2019-02-20T22:29:04.018Z,13.40
2019-02-20T22:32:10.386Z,13.13
2019-02-20T22:35:13.781Z,13.10
2019-02-20T22:38:41.681Z,13.30
2019-02-20T22:42:17.632Z,14.10
2019-02-20T22:45:40.643Z,13.90
2019-02-20T22:48:57.488Z,14.40
2019-02-20T22:52:02.297Z,15.10
2019-02-20T22:58:44.873Z,14.27
2019-02-20T23:01:59.988Z,13.83
2019-02-20T23:05:01.505Z,13.17
2019-02-20T23:07:55.637Z,13.90
2019-02-20T23:11:03.445Z,13.70
2019-02-20T23:14:30.985Z,12.97
2019-02-20T23:16:59.216Z,14.50
2019-02-20T23:19:27.507Z,16.03
2019-02-20T23:21:58.237Z,15.20
2019-02-20T23:24:26.690Z,16.30
2019-02-20T23:27:01.582Z,16.23
2019-02-20T23:29:38.394Z,16.73
2019-02-20T23:32:13.837Z,15.23
2019-02-20T23:34:51.508Z,15.43
2019-02-20T23:37:29.382Z,16.47
2019-02-20T23:40:04.844Z,15.43
2019-02-20T23:42:49.347Z,16.27
2019-02-20T23:45:24.994Z,16.20
2019-02-20T23:47:58.623Z,16.00
2019-02-20T23:50:33.673Z,14.43
2019-02-20T23:53:14.030Z,15.20
2019-02-20T23:55:55.523Z,15.87
2019-02-20T23:58:30.229Z,15.20
